createdAt,value
2022-12-19T00:01:20.441Z,-0.41
2022-12-19T00:03:52.500Z,-0.42
2022-12-19T00:06:20.161Z,-0.39
2022-12-19T00:08:47.295Z,-0.37
2022-12-19T00:11:14.682Z,-0.39
2022-12-19T00:13:41.456Z,-0.32
2022-12-19T00:16:10.726Z,-0.35
2022-12-19T00:18:39.117Z,-0.35
2022-12-19T00:21:05.695Z,-0.37
2022-12-19T00:23:33.564Z,-0.38
2022-12-19T00:26:26.384Z,-0.40
2022-12-19T00:28:54.057Z,-0.40
2022-12-19T00:31:21.517Z,-0.38
2022-12-19T00:33:48.526Z,-0.35
2022-12-19T00:36:18.116Z,-0.34
2022-12-19T00:38:51.015Z,-0.37
2022-12-19T00:41:18.705Z,-0.34
2022-12-19T00:43:45.629Z,-0.31
2022-12-19T00:46:15.643Z,-0.31
2022-12-19T00:48:42.765Z,-0.25
2022-12-19T00:51:16.599Z,-0.18
2022-12-19T00:53:43.388Z,-0.19
2022-12-19T00:56:14.375Z,-0.28
2022-12-19T00:58:46.423Z,-0.28
2022-12-19T01:01:15.622Z,-0.33
2022-12-19T01:03:58.066Z,-0.27
2022-12-19T01:06:29.389Z,-0.31
2022-12-19T01:08:56.610Z,-0.34
2022-12-19T01:11:43.409Z,-0.35
2022-12-19T01:14:10.559Z,-0.32
2022-12-19T01:16:38.612Z,-0.24
2022-12-19T01:19:05.081Z,-0.28
2022-12-19T01:21:33.698Z,-0.25
2022-12-19T01:24:01.253Z,-0.22
2022-12-19T01:26:27.652Z,-0.19
2022-12-19T01:28:54.033Z,-0.21
2022-12-19T01:31:20.513Z,-0.19
2022-12-19T01:33:46.925Z,-0.21
2022-12-19T01:36:15.873Z,-0.17
2022-12-19T01:38:42.275Z,-0.19
2022-12-19T01:41:08.669Z,-0.16
2022-12-19T01:43:54.135Z,-0.07
2022-12-19T01:46:28.836Z,-0.03
2022-12-19T01:48:56.395Z,0.01
2022-12-19T01:51:24.550Z,0.02
2022-12-19T01:54:03.087Z,0.02
2022-12-19T01:56:32.594Z,0.03
2022-12-19T01:59:06.357Z,0.03
2022-12-19T02:01:40.899Z,0.04
2022-12-19T02:04:18.837Z,0.02
2022-12-19T02:06:46.148Z,0.07
2022-12-19T02:09:13.132Z,0.07
2022-12-19T02:11:39.848Z,0.09
2022-12-19T02:14:06.810Z,0.09
2022-12-19T02:16:36.328Z,0.13
2022-12-19T02:19:05.832Z,0.24
2022-12-19T02:21:49.487Z,0.20
2022-12-19T02:24:38.698Z,0.21
2022-12-19T02:27:37.097Z,0.24
2022-12-19T02:30:12.735Z,0.26
2022-12-19T02:33:00.175Z,0.25
2022-12-19T02:35:57.042Z,0.28
2022-12-19T02:38:32.751Z,0.30
2022-12-19T02:41:14.623Z,0.35
2022-12-19T02:43:44.784Z,0.38
2022-12-19T02:46:13.722Z,0.38
2022-12-19T02:48:41.133Z,0.41
2022-12-19T02:51:07.643Z,0.40
2022-12-19T02:53:37.813Z,0.39
2022-12-19T02:56:16.349Z,0.40
2022-12-19T02:58:48.397Z,0.46
2022-12-19T03:01:27.685Z,0.46
2022-12-19T03:04:13.123Z,0.49
2022-12-19T03:06:43.738Z,0.51
2022-12-19T03:09:25.865Z,0.54
2022-12-19T03:11:57.542Z,0.56
2022-12-19T03:14:24.834Z,0.57
2022-12-19T03:16:54.551Z,0.55
2022-12-19T03:19:21.140Z,0.56
2022-12-19T03:21:49.576Z,0.55
2022-12-19T03:24:16.584Z,0.60
2022-12-19T03:26:49.474Z,0.59
2022-12-19T03:29:19.185Z,0.58
2022-12-19T03:31:46.298Z,0.54
2022-12-19T03:34:15.894Z,0.53
2022-12-19T03:36:47.049Z,0.59
2022-12-19T03:39:14.713Z,0.58
2022-12-19T03:42:01.529Z,0.57
2022-12-19T03:44:30.588Z,0.58
2022-12-19T03:47:09.506Z,0.59
2022-12-19T03:49:36.340Z,0.62
2022-12-19T03:52:11.743Z,0.58
2022-12-19T03:54:43.916Z,0.62
2022-12-19T03:57:16.158Z,0.62
2022-12-19T03:59:55.973Z,0.55
2022-12-19T04:02:23.564Z,0.53
2022-12-19T04:04:55.797Z,0.56
2022-12-19T04:07:23.440Z,0.58
2022-12-19T04:09:51.149Z,0.56
2022-12-19T04:12:19.509Z,0.57
2022-12-19T04:14:46.106Z,0.63
2022-12-19T04:17:12.506Z,0.58
2022-12-19T04:19:42.602Z,0.58
2022-12-19T04:22:16.161Z,0.54
2022-12-19T04:24:45.432Z,0.61
2022-12-19T04:27:13.159Z,0.63
2022-12-19T04:29:39.953Z,0.63
2022-12-19T04:32:08.216Z,0.65
2022-12-19T04:34:36.869Z,0.61
2022-12-19T04:37:06.629Z,0.57
2022-12-19T04:39:33.079Z,0.59
2022-12-19T04:41:59.436Z,0.64
2022-12-19T04:44:25.805Z,0.66
2022-12-19T04:46:52.238Z,0.66
2022-12-19T04:49:18.655Z,0.64
2022-12-19T04:51:45.039Z,0.63
2022-12-19T04:54:11.447Z,0.74
2022-12-19T04:56:37.830Z,0.77
2022-12-19T04:59:04.207Z,0.73
2022-12-19T05:01:30.711Z,0.71
2022-12-19T05:04:02.750Z,0.72
2022-12-19T05:06:30.740Z,0.76
2022-12-19T05:08:57.162Z,0.70
2022-12-19T05:11:23.541Z,0.76
2022-12-19T05:13:50.120Z,0.80
2022-12-19T05:16:16.588Z,0.83
2022-12-19T05:18:43.381Z,0.78
2022-12-19T05:21:10.975Z,0.82
2022-12-19T05:23:37.741Z,0.95
2022-12-19T05:26:05.591Z,0.90
2022-12-19T05:28:32.716Z,1.06
2022-12-19T05:31:04.048Z,1.03
2022-12-19T05:33:30.500Z,1.08
2022-12-19T05:35:56.852Z,1.09
2022-12-19T05:38:23.274Z,1.05
2022-12-19T05:40:49.657Z,0.99
2022-12-19T05:43:16.016Z,1.06
2022-12-19T05:45:42.380Z,0.93
2022-12-19T05:48:09.500Z,1.06
2022-12-19T05:50:36.006Z,1.22
2022-12-19T05:53:08.810Z,1.10
2022-12-19T05:55:35.161Z,1.07
2022-12-19T05:58:01.548Z,1.12
2022-12-19T06:00:27.997Z,1.16
2022-12-19T06:02:54.699Z,1.15
2022-12-19T06:05:21.234Z,1.16
2022-12-19T06:07:47.914Z,1.19
2022-12-19T06:10:14.334Z,1.25
2022-12-19T06:12:40.704Z,1.21
2022-12-19T06:15:07.283Z,1.28
2022-12-19T06:17:34.310Z,1.37
2022-12-19T06:20:00.689Z,1.21
2022-12-19T06:22:27.077Z,1.28
2022-12-19T06:24:53.490Z,1.29
2022-12-19T06:27:19.871Z,1.37
2022-12-19T06:29:46.237Z,1.31
2022-12-19T06:32:12.630Z,1.36
2022-12-19T06:35:03.166Z,1.29
2022-12-19T06:37:25.339Z,1.34
2022-12-19T06:39:51.770Z,1.42
2022-12-19T06:42:24.350Z,1.49
2022-12-19T06:44:51.607Z,1.43
2022-12-19T06:47:18.441Z,1.38
2022-12-19T06:49:44.820Z,1.61
2022-12-19T06:52:14.047Z,1.64
2022-12-19T06:54:41.149Z,1.66
2022-12-19T06:57:07.780Z,1.70
2022-12-19T06:59:34.163Z,1.80
2022-12-19T07:02:00.659Z,1.72
2022-12-19T07:04:38.053Z,1.82
2022-12-19T07:07:04.570Z,1.67
2022-12-19T07:09:30.921Z,1.72
2022-12-19T07:11:57.631Z,1.84
2022-12-19T07:14:24.126Z,1.87
2022-12-19T07:16:52.294Z,1.82
2022-12-19T07:19:19.166Z,1.86
2022-12-19T07:21:45.682Z,1.79
2022-12-19T07:24:12.756Z,1.82
2022-12-19T07:26:39.109Z,1.86
2022-12-19T07:29:05.612Z,1.92
2022-12-19T07:31:34.668Z,2.01
2022-12-19T07:34:01.209Z,1.94
2022-12-19T07:36:27.629Z,1.88
2022-12-19T07:38:53.999Z,1.90
2022-12-19T07:41:20.459Z,2.10
2022-12-19T07:43:47.258Z,1.93
2022-12-19T07:46:13.844Z,2.05
2022-12-19T07:48:40.244Z,2.05
2022-12-19T07:51:06.845Z,2.02
2022-12-19T07:53:33.297Z,2.06
2022-12-19T07:55:59.707Z,2.11
2022-12-19T07:58:26.153Z,2.00
2022-12-19T08:00:56.417Z,2.06
2022-12-19T08:03:23.414Z,2.09
2022-12-19T08:05:51.071Z,2.14
2022-12-19T08:08:17.734Z,2.03
2022-12-19T08:10:44.148Z,2.11
2022-12-19T08:13:10.550Z,2.27
2022-12-19T08:15:36.967Z,2.22
2022-12-19T08:18:03.522Z,2.22
2022-12-19T08:20:29.976Z,2.12
2022-12-19T08:22:56.385Z,2.17
2022-12-19T08:25:22.824Z,2.05
2022-12-19T08:27:49.187Z,2.27
2022-12-19T08:30:15.667Z,2.41
2022-12-19T08:32:42.079Z,2.29
2022-12-19T08:35:08.716Z,2.22
2022-12-19T08:37:35.142Z,2.27
2022-12-19T08:40:01.613Z,2.47
2022-12-19T08:42:28.013Z,2.48
2022-12-19T08:44:54.410Z,2.53
2022-12-19T08:47:20.792Z,2.49
2022-12-19T08:49:47.178Z,2.42
2022-12-19T08:52:13.549Z,2.49
2022-12-19T08:54:40.001Z,2.49
2022-12-19T08:57:06.397Z,2.64
2022-12-19T08:59:32.792Z,2.61
2022-12-19T09:02:00.331Z,2.63
2022-12-19T09:05:58.411Z,2.59
2022-12-19T09:07:15.315Z,2.73
2022-12-19T09:09:42.606Z,2.36
2022-12-19T09:12:09.023Z,2.68
2022-12-19T09:14:35.762Z,2.76
2022-12-19T09:17:03.841Z,2.90
2022-12-19T09:19:31.364Z,2.94
2022-12-19T09:21:57.733Z,2.73
2022-12-19T09:24:24.205Z,2.83
2022-12-19T09:26:50.596Z,2.73
2022-12-19T09:29:20.581Z,2.87
2022-12-19T09:31:47.803Z,2.88
2022-12-19T09:34:18.503Z,3.26
2022-12-19T09:36:48.390Z,3.23
2022-12-19T09:39:15.421Z,3.04
2022-12-19T09:41:41.798Z,3.15
2022-12-19T09:44:20.305Z,2.87
2022-12-19T09:46:51.303Z,3.37
2022-12-19T09:49:19.557Z,3.31
2022-12-19T09:51:51.791Z,3.27
2022-12-19T09:54:23.477Z,3.35
2022-12-19T09:56:52.663Z,3.35
2022-12-19T09:59:26.150Z,3.54
2022-12-19T10:02:04.059Z,3.46
2022-12-19T10:04:33.100Z,3.64
2022-12-19T10:07:18.188Z,3.43
2022-12-19T10:12:22.841Z,3.45
2022-12-19T10:12:55.797Z,3.45
2022-12-19T10:15:25.902Z,3.33
2022-12-19T10:17:52.269Z,3.14
2022-12-19T10:20:29.329Z,3.45
2022-12-19T10:23:21.892Z,3.35
2022-12-19T10:25:57.149Z,3.12
2022-12-19T10:28:55.932Z,3.57
2022-12-19T10:31:29.219Z,3.42
2022-12-19T10:33:55.633Z,3.66
2022-12-19T10:36:36.269Z,3.47
2022-12-19T10:39:16.741Z,3.45
2022-12-19T10:41:44.194Z,3.45
2022-12-19T10:44:11.031Z,3.58
2022-12-19T10:46:43.491Z,3.58
2022-12-19T10:49:14.605Z,3.60
2022-12-19T10:51:41.806Z,3.80
2022-12-19T10:54:08.781Z,3.73
2022-12-19T10:56:38.019Z,3.71
2022-12-19T10:59:16.084Z,3.52
2022-12-19T11:01:42.832Z,3.55
2022-12-19T11:04:12.459Z,3.65
2022-12-19T11:06:47.338Z,3.49
2022-12-19T11:09:21.659Z,3.63
2022-12-19T11:14:36.466Z,3.43
2022-12-19T11:19:23.937Z,3.61
2022-12-19T11:24:13.995Z,3.63
2022-12-19T11:29:40.456Z,3.66
2022-12-19T11:30:06.171Z,3.70
2022-12-19T11:30:09.517Z,3.80
2022-12-19T11:30:41.131Z,3.86
2022-12-19T11:34:24.109Z,3.72
2022-12-19T11:37:09.644Z,3.93
2022-12-19T11:39:45.236Z,3.96
2022-12-19T11:42:14.379Z,3.80
2022-12-19T11:44:49.494Z,3.90
2022-12-19T11:47:32.362Z,3.93
2022-12-19T11:50:01.448Z,4.03
2022-12-19T11:55:30.377Z,4.06
2022-12-19T11:57:57.191Z,4.11
2022-12-19T12:00:24.488Z,4.09
2022-12-19T12:02:50.848Z,4.03
2022-12-19T12:05:25.370Z,3.96
2022-12-19T12:10:38.487Z,4.00
2022-12-19T12:16:27.313Z,4.05
2022-12-19T12:22:00.203Z,4.17
2022-12-19T12:30:39.084Z,4.43
2022-12-19T12:31:06.799Z,4.48
2022-12-19T12:31:19.068Z,4.50
2022-12-19T12:31:45.376Z,4.67
2022-12-19T12:31:58.467Z,4.66
2022-12-19T12:35:34.261Z,4.81
2022-12-19T12:35:36.474Z,4.78
2022-12-19T12:38:18.894Z,4.83
2022-12-19T12:40:58.816Z,4.81
2022-12-19T12:43:34.346Z,4.83
2022-12-19T12:46:03.129Z,4.84
2022-12-19T12:48:42.605Z,4.79
2022-12-19T12:51:10.231Z,4.63
2022-12-19T12:53:39.655Z,4.71
2022-12-19T12:56:07.435Z,4.74
2022-12-19T12:58:42.906Z,4.78
2022-12-19T13:01:11.158Z,4.84
2022-12-19T13:03:42.926Z,4.81
2022-12-19T13:06:24.380Z,4.73
2022-12-19T13:08:51.909Z,4.80
2022-12-19T13:11:37.630Z,4.88
2022-12-19T13:14:05.203Z,4.86
2022-12-19T13:16:48.645Z,4.88
2022-12-19T13:19:20.984Z,4.88
2022-12-19T13:22:08.846Z,4.88
2022-12-19T13:24:46.283Z,4.83
2022-12-19T13:27:18.632Z,4.88
2022-12-19T13:29:54.288Z,4.86
2022-12-19T13:32:21.538Z,4.65
2022-12-19T13:35:40.930Z,4.70
2022-12-19T13:39:49.873Z,4.77
2022-12-19T13:40:33.255Z,4.71
2022-12-19T13:43:18.479Z,4.66
2022-12-19T13:45:50.526Z,4.71
2022-12-19T13:48:22.340Z,4.65
2022-12-19T13:50:49.013Z,4.59
2022-12-19T13:53:22.239Z,4.68
2022-12-19T13:55:48.742Z,4.74
2022-12-19T13:58:28.923Z,4.69
2022-12-19T14:00:58.538Z,4.68
2022-12-19T14:03:32.591Z,4.71
2022-12-19T14:06:18.748Z,4.73
2022-12-19T14:08:47.222Z,4.73
2022-12-19T14:11:44.965Z,4.77
2022-12-19T14:14:27.661Z,4.78
2022-12-19T14:16:55.620Z,4.73
2022-12-19T14:19:27.109Z,4.72
2022-12-19T14:22:08.864Z,4.76
2022-12-19T14:24:40.544Z,4.71
2022-12-19T14:28:26.135Z,4.82
2022-12-19T14:30:29.164Z,4.70
2022-12-19T14:33:44.637Z,4.73
2022-12-19T14:36:07.809Z,4.69
2022-12-19T14:39:20.615Z,4.69
2022-12-19T14:41:47.875Z,4.68
2022-12-19T14:51:51.662Z,4.71
2022-12-19T14:52:26.183Z,4.61
2022-12-19T14:54:12.113Z,4.59
2022-12-19T14:54:40.345Z,4.61
2022-12-19T14:56:12.353Z,4.61
2022-12-19T14:58:54.201Z,4.55
2022-12-19T15:01:22.991Z,4.56
2022-12-19T15:04:48.046Z,4.59
2022-12-19T15:07:08.623Z,4.63
2022-12-19T15:11:03.013Z,4.71
2022-12-19T15:14:57.724Z,4.68
2022-12-19T15:16:04.201Z,4.66
2022-12-19T15:18:33.788Z,4.63
2022-12-19T15:21:01.589Z,4.65
2022-12-19T15:23:28.353Z,4.70
2022-12-19T15:26:04.622Z,4.69
2022-12-19T15:28:37.957Z,4.68
2022-12-19T15:31:16.914Z,4.64
2022-12-19T15:34:06.666Z,4.78
2022-12-19T15:36:29.836Z,4.70
2022-12-19T15:38:56.184Z,4.73
2022-12-19T15:41:24.093Z,4.83
2022-12-19T15:44:07.036Z,4.77
2022-12-19T15:46:34.613Z,4.75
2022-12-19T15:49:01.845Z,4.79
2022-12-19T15:51:28.220Z,4.81
2022-12-19T15:54:04.101Z,4.80
2022-12-19T15:56:46.912Z,4.83
2022-12-19T15:59:23.413Z,4.77
2022-12-19T16:01:50.737Z,4.85
2022-12-19T16:04:17.456Z,4.93
2022-12-19T16:06:43.973Z,4.83
2022-12-19T16:09:21.413Z,4.78
2022-12-19T16:11:48.611Z,4.83
2022-12-19T16:14:15.312Z,4.87
2022-12-19T16:16:41.962Z,4.92
2022-12-19T16:19:25.365Z,4.83
2022-12-19T16:21:51.998Z,4.88
2022-12-19T16:24:18.521Z,4.92
2022-12-19T16:26:48.437Z,4.84
2022-12-19T16:29:26.383Z,4.84
2022-12-19T16:31:53.446Z,4.76
2022-12-19T16:34:22.248Z,4.87
2022-12-19T16:36:49.228Z,4.78
2022-12-19T16:39:16.115Z,4.80
2022-12-19T16:41:43.691Z,4.83
2022-12-19T16:44:19.475Z,4.91
2022-12-19T16:46:50.625Z,4.85
2022-12-19T16:49:19.897Z,4.98
2022-12-19T16:51:46.430Z,4.94
2022-12-19T16:54:13.427Z,4.88
2022-12-19T16:56:41.762Z,4.87
2022-12-19T16:59:17.039Z,4.88
2022-12-19T17:01:44.103Z,4.87
2022-12-19T17:04:14.635Z,4.86
2022-12-19T17:06:41.216Z,4.77
2022-12-19T17:09:07.785Z,4.90
2022-12-19T17:11:34.191Z,4.90
2022-12-19T17:14:03.042Z,4.93
2022-12-19T17:16:30.064Z,5.04
2022-12-19T17:18:57.452Z,5.03
2022-12-19T17:21:23.847Z,5.09
2022-12-19T17:23:50.641Z,5.10
2022-12-19T17:26:18.127Z,5.17
2022-12-19T17:28:47.868Z,5.19
2022-12-19T17:31:25.732Z,5.12
2022-12-19T17:33:54.264Z,5.10
2022-12-19T17:36:26.085Z,5.11
2022-12-19T17:38:54.284Z,5.10
2022-12-19T17:41:20.665Z,5.08
2022-12-19T17:43:47.050Z,5.12
2022-12-19T17:46:20.954Z,5.04
2022-12-19T17:48:50.237Z,5.06
2022-12-19T17:51:17.374Z,5.09
2022-12-19T17:53:43.927Z,5.13
2022-12-19T17:56:13.623Z,5.15
2022-12-19T17:58:40.039Z,5.19
2022-12-19T18:01:16.872Z,5.23
2022-12-19T18:03:43.508Z,5.22
2022-12-19T18:06:12.252Z,5.22
2022-12-19T18:08:39.092Z,5.21
2022-12-19T18:11:07.591Z,5.23
2022-12-19T18:13:33.964Z,5.23
2022-12-19T18:16:01.425Z,5.23
2022-12-19T18:18:33.423Z,5.23
2022-12-19T18:21:00.353Z,5.20
2022-12-19T18:23:26.890Z,5.21
2022-12-19T18:26:00.872Z,5.20
2022-12-19T18:28:28.120Z,5.19
2022-12-19T18:30:58.084Z,5.23
2022-12-19T18:33:24.644Z,5.17
2022-12-19T18:35:51.172Z,5.14
2022-12-19T18:38:21.764Z,5.12
2022-12-19T18:40:49.358Z,5.21
2022-12-19T18:43:16.589Z,5.26
2022-12-19T18:45:44.305Z,5.24
2022-12-19T18:48:15.577Z,5.26
2022-12-19T18:50:41.960Z,5.29
2022-12-19T18:53:19.251Z,5.37
2022-12-19T18:55:46.365Z,5.37
2022-12-19T18:58:12.724Z,5.32
2022-12-19T19:00:39.487Z,5.34
2022-12-19T19:03:13.566Z,5.29
2022-12-19T19:05:40.735Z,5.29
2022-12-19T19:08:17.176Z,5.27
2022-12-19T19:10:48.409Z,5.32
2022-12-19T19:13:18.184Z,5.35
2022-12-19T19:15:49.416Z,5.29
2022-12-19T19:18:17.085Z,5.40
2022-12-19T19:20:44.537Z,5.25
2022-12-19T19:23:11.857Z,5.30
2022-12-19T19:25:38.441Z,5.21
2022-12-19T19:28:05.737Z,5.24
2022-12-19T19:30:33.064Z,5.34
2022-12-19T19:33:11.686Z,5.33
2022-12-19T19:35:38.566Z,5.31
2022-12-19T19:38:06.724Z,5.31
2022-12-19T19:40:33.698Z,5.44
2022-12-19T19:43:00.154Z,5.50
2022-12-19T19:45:27.794Z,5.57
2022-12-19T19:47:54.898Z,5.55
2022-12-19T19:50:21.322Z,5.40
2022-12-19T19:52:47.776Z,5.55
2022-12-19T19:55:17.233Z,5.54
2022-12-19T19:57:43.694Z,5.63
2022-12-19T20:00:10.525Z,5.62
2022-12-19T20:02:40.350Z,5.59
2022-12-19T20:05:07.683Z,5.54
2022-12-19T20:07:34.345Z,5.63
2022-12-19T20:10:00.764Z,5.59
2022-12-19T20:12:27.181Z,5.62
2022-12-19T20:14:53.580Z,5.59
2022-12-19T20:17:19.955Z,5.70
2022-12-19T20:19:46.317Z,5.75
2022-12-19T20:22:12.688Z,5.76
2022-12-19T20:24:39.129Z,5.78
2022-12-19T20:27:05.639Z,5.88
2022-12-19T20:29:32.168Z,5.89
2022-12-19T20:31:58.585Z,5.98
2022-12-19T20:34:25.840Z,5.85
2022-12-19T20:36:52.253Z,5.87
2022-12-19T20:39:25.572Z,6.05
2022-12-19T20:41:52.583Z,5.96
2022-12-19T20:44:24.061Z,5.96
2022-12-19T20:46:51.010Z,6.08
2022-12-19T20:49:18.591Z,6.00
2022-12-19T20:51:47.589Z,6.09
2022-12-19T20:54:15.622Z,5.98
2022-12-19T20:56:42.077Z,6.05
2022-12-19T20:59:09.490Z,5.99
2022-12-19T21:01:36.119Z,5.87
2022-12-19T21:04:02.866Z,5.83
2022-12-19T21:06:29.376Z,5.92
2022-12-19T21:08:56.278Z,6.09
2022-12-19T21:11:23.247Z,6.14
2022-12-19T21:13:49.708Z,6.04
2022-12-19T21:16:18.157Z,6.05
2022-12-19T21:18:45.617Z,6.01
2022-12-19T21:21:13.599Z,6.19
2022-12-19T21:23:40.292Z,6.22
2022-12-19T21:26:06.801Z,6.26
2022-12-19T21:28:33.230Z,6.28
2022-12-19T21:31:01.303Z,6.28
2022-12-19T21:33:27.986Z,6.25
2022-12-19T21:35:54.752Z,6.24
2022-12-19T21:38:21.518Z,6.23
2022-12-19T21:40:48.011Z,6.33
2022-12-19T21:43:14.405Z,6.19
2022-12-19T21:45:40.817Z,6.14
2022-12-19T21:48:07.244Z,6.23
2022-12-19T21:50:33.866Z,6.21
2022-12-19T21:53:01.038Z,6.15
2022-12-19T21:55:27.440Z,6.04
2022-12-19T21:57:53.825Z,6.18
2022-12-19T22:00:20.258Z,6.22
2022-12-19T22:03:11.880Z,6.24
2022-12-19T22:05:33.807Z,6.32
2022-12-19T22:08:00.350Z,6.36
2022-12-19T22:10:26.782Z,6.36
2022-12-19T22:12:53.144Z,6.41
2022-12-19T22:15:19.512Z,6.30
2022-12-19T22:17:45.884Z,6.28
2022-12-19T22:20:12.346Z,6.27
2022-12-19T22:22:38.736Z,6.41
2022-12-19T22:25:05.411Z,6.08
2022-12-19T22:27:31.777Z,6.16
2022-12-19T22:29:58.267Z,6.24
2022-12-19T22:32:24.647Z,6.27
2022-12-19T22:34:51.039Z,6.54
2022-12-19T22:37:17.488Z,6.46
2022-12-19T22:39:43.882Z,6.68
2022-12-19T22:42:10.327Z,6.60
2022-12-19T22:44:36.773Z,6.77
2022-12-19T22:47:03.897Z,6.83
2022-12-19T22:49:30.280Z,6.84
2022-12-19T22:51:56.713Z,6.81
2022-12-19T22:54:23.083Z,6.81
2022-12-19T22:56:50.722Z,6.84
2022-12-19T22:59:17.159Z,7.03
2022-12-19T23:01:43.972Z,7.15
2022-12-19T23:04:12.228Z,7.23
2022-12-19T23:06:38.983Z,7.24
2022-12-19T23:09:06.338Z,7.19
2022-12-19T23:11:34.533Z,7.14
2022-12-19T23:14:01.673Z,7.23
2022-12-19T23:16:28.261Z,7.00
2022-12-19T23:18:54.837Z,6.97
2022-12-19T23:21:22.461Z,7.17
2022-12-19T23:23:50.075Z,7.15
2022-12-19T23:26:21.169Z,7.24
2022-12-19T23:28:55.229Z,7.65
2022-12-19T23:31:22.099Z,7.39
2022-12-19T23:33:48.669Z,7.39
2022-12-19T23:36:15.410Z,7.55
2022-12-19T23:38:43.322Z,7.54
2022-12-19T23:41:11.029Z,7.56
2022-12-19T23:43:37.682Z,7.57
2022-12-19T23:46:17.577Z,7.74
2022-12-19T23:48:44.303Z,7.72
2022-12-19T23:51:13.241Z,7.59
2022-12-19T23:53:39.763Z,7.70
2022-12-19T23:56:10.159Z,7.83
2022-12-19T23:58:36.667Z,7.82
